Terminal Aerodrome Forecast
Issued by NWS

Home | Current Version | Previous Version | Text Only | Print | Product List | Glossary On
Versions: 1 2 3 4 5 6 7 8 9 10 11 12 13 14 15
000
FTUS44 KLIX 301730
TAFHDC
TAF
KHDC 301730Z 3018/3118 00000KT P6SM SCT045 SCT080
     FM310000 19005KT P6SM SCT250
     FM310600 00000KT P6SM SCT250
     FM311100 00000KT P6SM SCT025=

USA.gov is the U.S. government's official web portal to all federal, state and local government web resources and services.